createdAt,value
2022-09-09T00:00:55.012Z,79.37
2022-09-09T00:03:28.111Z,79.00
2022-09-09T00:06:19.469Z,79.09
2022-09-09T00:09:16.664Z,81.54
2022-09-09T00:12:18.103Z,81.06
2022-09-09T00:14:49.318Z,80.25
2022-09-09T00:17:32.386Z,81.67
2022-09-09T00:20:20.700Z,80.59
2022-09-09T00:23:00.124Z,79.66
2022-09-09T00:25:35.240Z,76.95
2022-09-09T00:28:01.998Z,79.45
2022-09-09T00:30:35.934Z,81.33
2022-09-09T00:33:14.021Z,76.68
2022-09-09T00:35:45.692Z,76.47
2022-09-09T00:38:17.617Z,74.58
2022-09-09T00:40:53.997Z,75.41
2022-09-09T00:43:26.688Z,74.32
2022-09-09T00:46:19.257Z,76.17
2022-09-09T00:48:45.970Z,75.34
2022-09-09T00:51:24.768Z,75.46
2022-09-09T00:54:14.377Z,73.76
2022-09-09T00:57:13.975Z,75.52
2022-09-09T00:59:54.516Z,75.19
2022-09-09T01:02:42.789Z,76.46
2022-09-09T01:05:21.103Z,77.41
2022-09-09T01:07:53.956Z,77.44
2022-09-09T01:10:47.185Z,77.72
2022-09-09T01:13:31.583Z,78.73
2022-09-09T01:16:07.084Z,80.60
2022-09-09T01:18:38.147Z,80.72
2022-09-09T01:21:29.344Z,81.33
2022-09-09T01:24:35.702Z,82.22
2022-09-09T01:27:05.274Z,83.88
2022-09-09T01:29:32.027Z,82.92
2022-09-09T01:31:58.510Z,84.62
2022-09-09T01:34:29.751Z,84.00
2022-09-09T01:37:11.379Z,84.25
2022-09-09T01:39:40.049Z,85.44
2022-09-09T01:42:10.222Z,85.80
2022-09-09T01:44:38.951Z,87.15
2022-09-09T01:47:06.340Z,88.49
2022-09-09T01:49:33.952Z,86.88
2022-09-09T01:52:00.793Z,87.62
2022-09-09T01:54:31.156Z,87.63
2022-09-09T01:57:22.184Z,87.69
2022-09-09T01:59:54.887Z,86.16
2022-09-09T02:02:36.732Z,86.64
2022-09-09T02:05:17.894Z,86.41
2022-09-09T02:07:49.350Z,86.71
2022-09-09T02:10:31.758Z,87.01
2022-09-09T02:13:11.488Z,86.84
2022-09-09T02:15:51.950Z,86.93
2022-09-09T02:18:34.692Z,86.85
2022-09-09T02:21:03.738Z,87.05
2022-09-09T02:23:31.614Z,87.50
2022-09-09T02:25:59.713Z,89.05
2022-09-09T02:28:29.767Z,89.51
2022-09-09T02:30:57.316Z,89.33
2022-09-09T02:33:28.107Z,89.02
2022-09-09T02:35:57.638Z,88.54
2022-09-09T02:38:29.788Z,89.45
2022-09-09T02:40:56.418Z,89.10
2022-09-09T02:43:23.370Z,89.37
2022-09-09T02:45:58.793Z,90.87
2022-09-09T02:48:52.069Z,92.10
2022-09-09T02:51:34.873Z,92.58
2022-09-09T02:54:31.836Z,93.14
2022-09-09T02:57:26.698Z,91.96
2022-09-09T02:59:53.788Z,93.01
2022-09-09T03:02:20.486Z,93.18
2022-09-09T03:04:51.833Z,94.17
2022-09-09T03:07:21.776Z,95.05
2022-09-09T03:09:48.511Z,94.40
2022-09-09T03:12:15.035Z,95.23
2022-09-09T03:14:41.608Z,95.03
2022-09-09T03:17:08.145Z,94.37
2022-09-09T03:19:36.244Z,95.74
2022-09-09T03:22:02.820Z,94.83
2022-09-09T03:24:29.292Z,95.13
2022-09-09T03:26:56.807Z,95.06
2022-09-09T03:29:23.266Z,95.66
2022-09-09T03:31:49.882Z,94.82
2022-09-09T03:34:16.405Z,94.55
2022-09-09T03:36:42.975Z,95.30
2022-09-09T03:39:09.572Z,96.06
2022-09-09T03:41:36.132Z,96.65
2022-09-09T03:44:02.866Z,96.97
2022-09-09T03:46:29.441Z,97.73
2022-09-09T03:48:55.990Z,97.42
2022-09-09T03:51:23.073Z,97.48
2022-09-09T03:53:50.069Z,98.23
2022-09-09T03:56:17.012Z,99.12
2022-09-09T03:58:43.536Z,98.39
2022-09-09T04:01:15.857Z,98.94
2022-09-09T04:03:43.057Z,98.33
2022-09-09T04:06:12.794Z,99.06
2022-09-09T04:08:39.558Z,99.48
2022-09-09T04:11:07.375Z,99.02
2022-09-09T04:13:40.071Z,99.70
2022-09-09T04:16:07.538Z,99.12
2022-09-09T04:18:35.582Z,97.83
2022-09-09T04:21:02.351Z,97.63
2022-09-09T04:23:30.512Z,97.94
2022-09-09T04:25:59.069Z,96.66
2022-09-09T04:28:29.376Z,97.29
2022-09-09T04:30:56.264Z,97.33
2022-09-09T04:33:22.750Z,97.48
2022-09-09T04:35:50.719Z,98.52
2022-09-09T04:38:18.307Z,98.77
2022-09-09T04:40:47.756Z,98.83
2022-09-09T04:43:15.778Z,98.58
2022-09-09T04:45:43.276Z,99.58
2022-09-09T04:48:13.010Z,100.00
2022-09-09T04:50:39.717Z,100.00
2022-09-09T04:53:06.512Z,100.00
2022-09-09T04:55:33.451Z,99.81
2022-09-09T04:58:07.899Z,99.74
2022-09-09T05:00:36.800Z,99.92
2022-09-09T05:03:05.411Z,99.73
2022-09-09T05:05:37.234Z,100.00
2022-09-09T05:08:09.465Z,100.00
2022-09-09T05:10:38.660Z,100.00
2022-09-09T05:13:06.217Z,100.00
2022-09-09T05:15:32.796Z,100.00
2022-09-09T05:18:03.253Z,100.00
2022-09-09T05:20:30.172Z,100.00
2022-09-09T05:22:57.495Z,100.00
2022-09-09T05:25:26.948Z,100.00
2022-09-09T05:27:54.737Z,100.00
2022-09-09T05:30:23.175Z,100.00
2022-09-09T05:32:50.007Z,100.00
2022-09-09T05:35:17.295Z,100.00
2022-09-09T05:37:43.810Z,100.00
2022-09-09T05:40:12.057Z,100.00
2022-09-09T05:42:39.986Z,100.00
2022-09-09T05:45:08.759Z,100.00
2022-09-09T05:47:36.447Z,100.00
2022-09-09T05:50:03.273Z,100.00
2022-09-09T05:52:29.803Z,99.82
2022-09-09T05:54:57.959Z,99.31
2022-09-09T05:57:24.487Z,99.54
2022-09-09T05:59:50.962Z,97.26
2022-09-09T06:02:17.715Z,96.26
2022-09-09T06:04:44.270Z,96.32
2022-09-09T06:07:10.788Z,96.26
2022-09-09T06:09:37.410Z,95.02
2022-09-09T06:12:04.002Z,94.18
2022-09-09T06:14:30.922Z,92.55
2022-09-09T06:16:57.708Z,92.29
2022-09-09T06:19:27.839Z,93.05
2022-09-09T06:21:54.401Z,92.41
2022-09-09T06:24:21.073Z,92.63
2022-09-09T06:26:47.643Z,92.17
2022-09-09T06:29:14.205Z,91.39
2022-09-09T06:31:42.420Z,89.29
2022-09-09T06:34:09.980Z,86.75
2022-09-09T06:36:38.738Z,85.62
2022-09-09T06:39:09.726Z,87.31
2022-09-09T06:41:39.594Z,84.83
2022-09-09T06:44:06.156Z,84.74
2022-09-09T06:46:34.176Z,84.72
2022-09-09T06:49:01.422Z,84.38
2022-09-09T06:51:34.420Z,84.36
2022-09-09T06:54:03.241Z,84.88
2022-09-09T06:56:47.655Z,84.53
2022-09-09T06:59:14.476Z,83.10
2022-09-09T07:01:43.004Z,83.03
2022-09-09T07:04:10.455Z,83.37
2022-09-09T07:06:39.309Z,85.50
2022-09-09T07:09:09.381Z,83.47
2022-09-09T07:11:44.363Z,83.80
2022-09-09T07:14:14.903Z,84.29
2022-09-09T07:16:42.901Z,82.96
2022-09-09T07:19:10.040Z,83.89
2022-09-09T07:21:37.022Z,84.00
2022-09-09T07:24:03.838Z,83.50
2022-09-09T07:26:31.998Z,83.15
2022-09-09T07:28:58.627Z,80.89
2022-09-09T07:31:32.745Z,81.67
2022-09-09T07:34:00.825Z,83.30
2022-09-09T07:36:33.793Z,81.73
2022-09-09T07:39:18.914Z,83.62
2022-09-09T07:41:48.513Z,82.31
2022-09-09T07:44:18.073Z,81.28
2022-09-09T07:46:46.398Z,80.32
2022-09-09T07:49:13.564Z,79.57
2022-09-09T07:51:43.100Z,77.99
2022-09-09T07:54:12.664Z,78.53
2022-09-09T07:56:40.548Z,76.04
2022-09-09T07:59:08.263Z,76.67
2022-09-09T08:01:40.454Z,77.63
2022-09-09T08:04:10.626Z,76.99
2022-09-09T08:06:42.004Z,74.90
2022-09-09T08:09:10.117Z,73.09
2022-09-09T08:11:39.280Z,72.87
2022-09-09T08:14:08.444Z,71.13
2022-09-09T08:16:37.646Z,70.97
2022-09-09T08:19:05.208Z,69.14
2022-09-09T08:21:34.162Z,67.36
2022-09-09T08:24:02.388Z,68.42
2022-09-09T08:26:31.786Z,70.02
2022-09-09T08:29:00.783Z,68.63
2022-09-09T08:31:36.764Z,66.82
2022-09-09T08:34:06.640Z,65.14
2022-09-09T08:36:39.951Z,66.61
2022-09-09T08:39:08.063Z,63.62
2022-09-09T08:42:12.818Z,64.25
2022-09-09T08:44:54.099Z,63.98
2022-09-09T08:47:40.329Z,60.66
2022-09-09T08:50:14.901Z,60.33
2022-09-09T08:53:11.509Z,60.40
2022-09-09T08:55:59.834Z,60.96
2022-09-09T08:58:31.767Z,59.85
2022-09-09T09:01:10.351Z,61.24
2022-09-09T09:03:42.836Z,59.36
2022-09-09T09:06:40.456Z,61.00
2022-09-09T09:09:46.920Z,56.01
2022-09-09T09:12:28.075Z,57.36
2022-09-09T09:14:56.702Z,59.53
2022-09-09T09:17:26.566Z,58.12
2022-09-09T09:19:53.063Z,54.80
2022-09-09T09:22:40.525Z,60.16
2022-09-09T09:25:13.208Z,62.96
2022-09-09T09:27:56.960Z,55.19
2022-09-09T09:30:30.548Z,54.79
2022-09-09T09:33:07.281Z,54.17
2022-09-09T09:35:38.581Z,55.26
2022-09-09T09:41:15.426Z,53.35
2022-09-09T09:43:43.706Z,53.87
2022-09-09T09:46:25.172Z,54.31
2022-09-09T09:49:09.794Z,53.80
2022-09-09T09:51:37.580Z,50.80
2022-09-09T09:54:30.966Z,47.70
2022-09-09T09:57:08.007Z,45.51
2022-09-09T09:59:39.748Z,47.83
2022-09-09T10:02:19.537Z,45.99
2022-09-09T10:04:46.977Z,48.72
2022-09-09T10:07:21.805Z,45.92
2022-09-09T10:09:57.320Z,46.30
2022-09-09T10:12:45.168Z,47.06
2022-09-09T10:15:51.285Z,44.64
2022-09-09T10:18:23.870Z,44.71
2022-09-09T10:21:21.710Z,38.00
2022-09-09T10:24:06.889Z,43.52
2022-09-09T10:26:48.775Z,38.68
2022-09-09T10:29:15.338Z,39.88
2022-09-09T10:31:47.632Z,35.50
2022-09-09T10:34:36.798Z,38.41
2022-09-09T10:37:12.455Z,36.01
2022-09-09T10:39:44.155Z,39.84
2022-09-09T10:42:17.684Z,36.36
2022-09-09T10:44:47.206Z,33.72
2022-09-09T10:47:47.418Z,35.93
2022-09-09T10:50:13.924Z,33.55
2022-09-09T10:53:15.219Z,31.57
2022-09-09T10:55:51.912Z,33.73
2022-09-09T10:58:31.147Z,33.53
2022-09-09T11:01:04.126Z,30.52
2022-09-09T11:03:32.092Z,30.01
2022-09-09T11:06:15.293Z,31.32
2022-09-09T11:08:42.526Z,28.77
2022-09-09T11:11:30.302Z,29.29
2022-09-09T11:14:04.576Z,31.02
2022-09-09T11:16:37.455Z,29.89
2022-09-09T11:19:37.207Z,29.27
2022-09-09T11:22:09.603Z,31.43
2022-09-09T11:24:41.652Z,32.46
2022-09-09T11:27:15.326Z,30.45
2022-09-09T11:29:48.889Z,30.05
2022-09-09T11:32:36.972Z,29.48
2022-09-09T11:35:21.868Z,27.47
2022-09-09T11:38:02.975Z,29.54
2022-09-09T11:40:31.593Z,30.60
2022-09-09T11:43:41.899Z,27.65
2022-09-09T11:46:09.841Z,27.62
2022-09-09T11:48:39.428Z,28.92
2022-09-09T11:51:16.721Z,27.99
2022-09-09T11:53:50.756Z,28.34
2022-09-09T11:56:27.209Z,28.40
2022-09-09T11:59:03.049Z,26.73
2022-09-09T12:01:44.654Z,26.09
2022-09-09T12:04:21.865Z,27.20
2022-09-09T12:06:57.123Z,28.91
2022-09-09T12:09:32.749Z,26.78
2022-09-09T12:12:12.296Z,27.00
2022-09-09T12:14:56.120Z,29.07
2022-09-09T12:17:25.744Z,31.01
2022-09-09T12:20:09.543Z,28.56
2022-09-09T12:23:03.341Z,29.11
2022-09-09T12:25:45.052Z,31.01
2022-09-09T12:28:19.366Z,29.25
2022-09-09T12:31:06.063Z,27.09
2022-09-09T12:33:38.377Z,26.70
2022-09-09T12:36:07.251Z,27.71
2022-09-09T12:38:41.052Z,27.81
2022-09-09T12:41:20.960Z,24.96
2022-09-09T12:43:48.504Z,24.34
2022-09-09T12:46:38.165Z,23.90
2022-09-09T12:49:05.534Z,25.12
2022-09-09T12:51:34.141Z,24.37
2022-09-09T12:54:01.574Z,22.97
2022-09-09T12:56:32.774Z,20.63
2022-09-09T12:59:00.168Z,20.95
2022-09-09T13:01:34.524Z,21.29
2022-09-09T13:04:01.503Z,22.13
2022-09-09T13:06:30.715Z,21.15
2022-09-09T13:09:00.298Z,21.72
2022-09-09T13:11:32.877Z,21.10
2022-09-09T13:14:00.316Z,22.55
2022-09-09T13:16:32.542Z,22.70
2022-09-09T13:19:02.304Z,24.01
2022-09-09T13:21:36.369Z,24.17
2022-09-09T13:24:04.346Z,24.06
2022-09-09T13:26:31.123Z,23.66
2022-09-09T13:29:18.766Z,24.33
2022-09-09T13:31:46.077Z,20.47
2022-09-09T13:34:33.522Z,21.16
2022-09-09T13:37:06.850Z,23.09
2022-09-09T13:39:38.309Z,24.49
2022-09-09T13:42:05.523Z,27.79
2022-09-09T13:44:37.942Z,26.26
2022-09-09T13:47:10.257Z,25.05
2022-09-09T13:49:37.548Z,25.07
2022-09-09T13:52:12.931Z,25.07
2022-09-09T13:54:40.221Z,25.51
2022-09-09T13:57:16.092Z,25.81
2022-09-09T14:00:03.631Z,25.60
2022-09-09T14:02:29.149Z,25.18
2022-09-09T14:04:56.399Z,25.50
2022-09-09T14:07:23.130Z,23.33
2022-09-09T14:09:51.093Z,27.72
2022-09-09T14:12:17.815Z,25.51
2022-09-09T14:14:44.874Z,25.14
2022-09-09T14:17:11.735Z,28.79
2022-09-09T14:19:38.275Z,28.11
2022-09-09T14:22:06.991Z,28.56
2022-09-09T14:24:34.998Z,28.41
2022-09-09T14:27:01.638Z,28.16
2022-09-09T14:29:28.134Z,29.54
2022-09-09T14:31:54.626Z,31.07
2022-09-09T14:34:21.146Z,29.08
2022-09-09T14:36:48.404Z,28.21
2022-09-09T14:39:14.942Z,29.15
2022-09-09T14:41:41.534Z,27.74
2022-09-09T14:44:09.542Z,26.10
2022-09-09T14:46:36.016Z,27.31
2022-09-09T14:49:02.566Z,28.84
2022-09-09T14:51:29.258Z,30.03
2022-09-09T14:53:58.210Z,28.72
2022-09-09T14:56:28.747Z,30.38
2022-09-09T14:58:56.416Z,32.60
2022-09-09T15:01:23.725Z,33.22
2022-09-09T15:03:59.113Z,30.62
2022-09-09T15:06:27.684Z,31.03
2022-09-09T15:08:54.954Z,30.64
2022-09-09T15:11:23.065Z,34.02
2022-09-09T15:13:53.736Z,30.22
2022-09-09T15:16:21.295Z,32.27
2022-09-09T15:18:51.363Z,31.13
2022-09-09T15:21:20.394Z,30.19
2022-09-09T15:23:48.216Z,30.54
2022-09-09T15:26:15.243Z,26.54
2022-09-09T15:28:44.666Z,26.25
2022-09-09T15:31:22.710Z,25.06
2022-09-09T15:33:51.901Z,25.13
2022-09-09T15:36:21.335Z,26.94
2022-09-09T15:38:48.535Z,29.92
2022-09-09T15:41:16.280Z,29.53
2022-09-09T15:43:50.955Z,27.33
2022-09-09T15:46:37.072Z,28.23
2022-09-09T15:49:27.017Z,30.90
2022-09-09T15:52:20.878Z,29.24
2022-09-09T15:54:47.619Z,29.50
2022-09-09T15:57:14.586Z,30.11
2022-09-09T15:59:41.292Z,31.05
2022-09-09T16:02:08.093Z,34.60
2022-09-09T16:04:35.042Z,31.88
2022-09-09T16:07:06.000Z,32.97
2022-09-09T16:09:33.839Z,33.24
2022-09-09T16:12:02.591Z,32.94
2022-09-09T16:14:29.871Z,34.06
2022-09-09T16:16:57.797Z,34.92
2022-09-09T16:19:24.287Z,34.39
2022-09-09T16:21:51.119Z,36.12
2022-09-09T16:24:20.196Z,36.45
2022-09-09T16:26:49.887Z,37.58
2022-09-09T16:29:18.345Z,38.59
2022-09-09T16:31:46.482Z,37.45
2022-09-09T16:34:13.821Z,38.32
2022-09-09T16:36:41.883Z,41.07
2022-09-09T16:39:16.790Z,43.77
2022-09-09T16:41:45.074Z,46.60
2022-09-09T16:44:13.535Z,47.07
2022-09-09T16:46:42.675Z,47.14
2022-09-09T16:49:12.122Z,46.15
2022-09-09T16:51:41.312Z,46.00
2022-09-09T16:54:09.676Z,47.58
2022-09-09T16:56:38.521Z,48.05
2022-09-09T16:59:08.030Z,47.23
2022-09-09T17:01:41.647Z,47.82
2022-09-09T17:04:10.213Z,45.74
2022-09-09T17:06:41.315Z,44.47
2022-09-09T17:09:12.049Z,45.01
2022-09-09T17:11:41.158Z,45.79
2022-09-09T17:14:10.377Z,49.21
2022-09-09T17:16:40.355Z,50.77
2022-09-09T17:19:09.284Z,51.29
2022-09-09T17:21:42.741Z,49.03
2022-09-09T17:24:22.127Z,48.44
2022-09-09T17:26:48.673Z,50.25
2022-09-09T17:29:15.458Z,51.12
2022-09-09T17:31:42.287Z,51.89
2022-09-09T17:34:09.834Z,51.81
2022-09-09T17:36:37.971Z,53.17
2022-09-09T17:39:05.796Z,53.44
2022-09-09T17:41:38.151Z,54.95
2022-09-09T17:44:05.883Z,54.41
2022-09-09T17:46:35.871Z,56.50
2022-09-09T17:49:05.588Z,56.68
2022-09-09T17:51:33.275Z,57.14
2022-09-09T17:54:11.266Z,57.95
2022-09-09T17:56:39.170Z,58.69
2022-09-09T17:59:10.300Z,51.76
2022-09-09T18:01:39.604Z,54.82
2022-09-09T18:04:08.902Z,57.52
2022-09-09T18:06:42.278Z,58.25
2022-09-09T18:09:13.235Z,56.25
2022-09-09T18:11:43.860Z,55.85
2022-09-09T18:14:12.858Z,58.50
2022-09-09T18:16:40.829Z,55.79
2022-09-09T18:19:13.772Z,57.13
2022-09-09T18:21:42.113Z,57.30
2022-09-09T18:24:10.620Z,61.13
2022-09-09T18:26:37.792Z,60.99
2022-09-09T18:29:07.913Z,61.50
2022-09-09T18:31:34.978Z,60.61
2022-09-09T18:34:03.677Z,60.45
2022-09-09T18:36:36.065Z,59.96
2022-09-09T18:39:04.971Z,59.77
2022-09-09T18:41:44.606Z,59.04
2022-09-09T18:44:16.598Z,57.43
2022-09-09T18:46:44.514Z,57.93
2022-09-09T18:49:12.206Z,58.16
2022-09-09T18:51:41.210Z,60.16
2022-09-09T18:54:13.145Z,60.63
2022-09-09T18:56:40.075Z,62.48
2022-09-09T18:59:08.578Z,62.52
2022-09-09T19:01:38.887Z,62.40
2022-09-09T19:04:07.745Z,62.99
2022-09-09T19:06:38.379Z,63.80
2022-09-09T19:09:06.037Z,63.82
2022-09-09T19:11:33.653Z,63.91
2022-09-09T19:14:03.815Z,64.06
2022-09-09T19:16:33.330Z,64.26
2022-09-09T19:19:06.178Z,65.66
2022-09-09T19:21:36.611Z,64.52
2022-09-09T19:24:06.185Z,66.11
2022-09-09T19:26:40.368Z,66.22
2022-09-09T19:29:10.176Z,68.03
2022-09-09T19:31:37.130Z,66.56
2022-09-09T19:34:04.179Z,65.82
2022-09-09T19:36:31.618Z,66.24
2022-09-09T19:39:00.987Z,67.23
2022-09-09T19:41:31.499Z,67.95
2022-09-09T19:44:01.787Z,68.85
2022-09-09T19:46:34.886Z,67.92
2022-09-09T19:49:02.016Z,66.09
2022-09-09T19:51:31.048Z,65.53
2022-09-09T19:54:09.536Z,67.18
2022-09-09T19:56:38.257Z,67.74
2022-09-09T19:59:06.420Z,68.39
2022-09-09T20:01:40.082Z,66.62
2022-09-09T20:04:07.769Z,66.52
2022-09-09T20:06:37.476Z,68.00
2022-09-09T20:09:06.251Z,69.00
2022-09-09T20:11:33.875Z,68.72
2022-09-09T20:14:00.727Z,68.54
2022-09-09T20:16:29.313Z,69.30
2022-09-09T20:18:58.616Z,70.85
2022-09-09T20:21:27.827Z,70.70
2022-09-09T20:23:55.911Z,70.81
2022-09-09T20:26:28.874Z,73.46
2022-09-09T20:28:56.135Z,72.36
2022-09-09T20:31:25.799Z,73.73
2022-09-09T20:33:53.655Z,75.39
2022-09-09T20:36:21.582Z,79.35
2022-09-09T20:38:51.416Z,76.51
2022-09-09T20:41:21.605Z,77.15
2022-09-09T20:43:53.492Z,76.73
2022-09-09T20:46:22.214Z,78.47
2022-09-09T20:48:52.755Z,80.29
2022-09-09T20:51:23.597Z,79.91
2022-09-09T20:53:58.409Z,79.37
2022-09-09T20:56:26.619Z,80.85
2022-09-09T20:58:53.806Z,81.91
2022-09-09T21:01:23.189Z,80.86
2022-09-09T21:03:50.000Z,82.22
2022-09-09T21:06:17.190Z,84.59
2022-09-09T21:08:44.387Z,81.50
2022-09-09T21:11:10.907Z,82.10
2022-09-09T21:13:38.989Z,82.07
2022-09-09T21:16:08.020Z,82.37
2022-09-09T21:18:35.385Z,82.36
2022-09-09T21:21:03.630Z,83.67
2022-09-09T21:23:31.351Z,84.85
2022-09-09T21:25:58.033Z,84.04
2022-09-09T21:28:25.789Z,83.91
2022-09-09T21:30:54.957Z,82.72
2022-09-09T21:33:23.902Z,82.93
2022-09-09T21:35:50.542Z,83.33
2022-09-09T21:38:21.713Z,82.91
2022-09-09T21:40:52.334Z,84.73
2022-09-09T21:43:20.516Z,85.32
2022-09-09T21:45:47.339Z,86.77
2022-09-09T21:48:16.138Z,87.42
2022-09-09T21:50:45.214Z,88.76
2022-09-09T21:53:13.051Z,90.10
2022-09-09T21:55:41.936Z,89.28
2022-09-09T21:58:12.132Z,88.49
2022-09-09T22:00:46.868Z,88.85
2022-09-09T22:03:14.775Z,88.04
2022-09-09T22:05:43.159Z,87.52
2022-09-09T22:08:11.792Z,89.17
2022-09-09T22:10:40.046Z,90.24
2022-09-09T22:13:07.318Z,89.74
2022-09-09T22:15:34.628Z,89.32
2022-09-09T22:18:03.218Z,89.92
2022-09-09T22:20:33.338Z,89.62
2022-09-09T22:23:01.490Z,88.42
2022-09-09T22:25:32.210Z,88.89
2022-09-09T22:27:58.755Z,91.13
2022-09-09T22:30:25.302Z,91.17
2022-09-09T22:32:51.865Z,92.20
2022-09-09T22:35:18.369Z,89.28
2022-09-09T22:37:44.871Z,89.65
2022-09-09T22:40:14.060Z,89.78
2022-09-09T22:42:41.818Z,90.68
2022-09-09T22:45:10.097Z,89.63
2022-09-09T22:47:37.888Z,92.33
2022-09-09T22:50:04.763Z,95.27
2022-09-09T22:52:32.278Z,94.26
2022-09-09T22:55:01.662Z,93.81
2022-09-09T22:57:28.184Z,94.58
2022-09-09T22:59:57.600Z,94.31
2022-09-09T23:02:29.727Z,93.27
2022-09-09T23:04:59.191Z,92.42
2022-09-09T23:07:25.679Z,91.92
2022-09-09T23:09:52.177Z,91.92
2022-09-09T23:12:20.125Z,92.76
2022-09-09T23:14:46.637Z,93.03
2022-09-09T23:17:16.059Z,93.81
2022-09-09T23:19:43.643Z,93.00
2022-09-09T23:22:11.362Z,93.01
2022-09-09T23:24:37.879Z,94.93
2022-09-09T23:27:04.549Z,94.69
2022-09-09T23:29:31.031Z,95.06
2022-09-09T23:31:57.518Z,95.42
2022-09-09T23:34:24.016Z,94.30
2022-09-09T23:36:50.498Z,94.71
2022-09-09T23:39:17.024Z,95.10
2022-09-09T23:41:43.523Z,95.03
2022-09-09T23:44:12.082Z,95.73
2022-09-09T23:46:38.607Z,96.77
2022-09-09T23:49:08.246Z,96.75
2022-09-09T23:51:35.397Z,99.09
2022-09-09T23:54:04.726Z,100.00
2022-09-09T23:56:34.795Z,100.00
2022-09-09T23:59:01.568Z,100.00
